CMA CGM La Boussole — A8FZ6 — position and weather

sailwx.info

Track history (hours):
 
Tides and Currents Weather Stations Pressure Air Temp Water Temp Dewpoint Dewpoint Depression Visibility Wind Speed Wind Dir Waves Ship Positions

CMA CGM La Boussole

Last reported at 2017-May-25 18:01 UTC. Time now 2017-May-25 18:02 UTC.
Position N 16°14' W 061°33'.

Length 210.1 m; beam 30.2 m; draft 11.5 m.

Type: Ship (hazmat cat A). MMSI: 636017045.

Date/timePositionNaut miles runAvg speedWind from/ knotsBaromVisibWave heightAir tempDewpointWater temp
2017-May-25 18:01N 16°14' W 061°33'0 0.1
2017-May-25 17:24N 16°14' W 061°33'0 0.0
2017-May-25 17:00N 16°14' W 061°33'0 0.0
2017-May-25 16:30N 16°14' W 061°33'0 0.0
2017-May-25 16:00N 16°14' W 061°33'0 0.0
2017-May-25 15:30N 16°14' W 061°33'0 0.0
2017-May-25 14:57N 16°14' W 061°33'0 0.0
2017-May-25 13:42N 16°14' W 061°33'0 0.0
2017-May-25 13:30N 16°14' W 061°33'0 0.0
2017-May-25 13:00N 16°14' W 061°33'0 0.0
2017-May-25 12:30N 16°14' W 061°33'0 0.0
2017-May-25 12:00N 16°14' W 061°33'0 0.0
2017-May-25 11:30N 16°14' W 061°33'0 0.0
2017-May-24 23:47N 16°14' W 061°33'0 0.0
2017-May-24 23:20N 16°14' W 061°33'0 0.0
2017-May-24 22:56N 16°14' W 061°33'0 0.0
2017-May-24 22:29N 16°14' W 061°33'0 0.0
2017-May-24 21:59N 16°14' W 061°33'0 0.0
2017-May-24 21:29N 16°14' W 061°33'0 0.0
2017-May-24 20:59N 16°14' W 061°33'0 0.0
2017-May-24 20:29N 16°14' W 061°33'0 0.0
2017-May-24 19:59N 16°14' W 061°33'0 0.0
2017-May-24 19:23N 16°14' W 061°33'0 0.0
2017-May-24 18:59N 16°14' W 061°33'0 0.0
2017-May-24 18:29N 16°14' W 061°33'1 2.6
2017-May-24 18:00N 16°13' W 061°32'4 8.2
2017-May-24 17:30N 16°09' W 061°30'2 4.8
2017-May-24 17:01N 16°07' W 061°29'611.6
2017-May-24 16:30N 16°07' W 061°23'2417.1
2017-May-24 15:05N 16°11' W 060°58'119.0
2017-May-24 15:00N 16°12' W 060°57'  
2017-May-17 20:49N 35°57' W 005°34'3 0.4
2017-May-17 12:38N 35°54' W 005°34'3 0.9
2017-May-17 09:28N 35°57' W 005°32'510.7
2017-May-17 08:59N 35°59' W 005°27'510.3
2017-May-17 08:30N 36°01' W 005°21'510.7
2017-May-17 08:00N 36°03' W 005°15'12 2.8
2017-May-17 03:32N 36°07' W 005°01'0 1.9
2017-May-17 03:29N 36°07' W 005°01'188 6.4
2017-May-15 22:01N 37°04' W 001°18'010.2
2017-May-15 22:00N 37°04' W 001°17'5 9.5
2017-May-15 21:30N 37°07' W 001°13'1111.2
2017-May-15 20:30N 37°14' W 001°02'612.7
2017-May-15 20:00N 37°18' W 000°56'612.5
2017-May-15 19:30N 37°22' W 000°50'612.3
2017-May-15 19:00N 37°26' W 000°45'912.6
2017-May-15 18:18N 37°32' W 000°36'  
Track history (hours):
 
Tides and Currents Weather Stations Pressure Air Temp Water Temp Dewpoint Dewpoint Depression Visibility Wind Speed Wind Dir Waves Ship Positions

CMA CGM La Boussole

Last reported at 2017-May-25 18:01 UTC. Time now 2017-May-25 18:02 UTC.
Position N 16°14' W 061°33'.

Length 210.1 m; beam 30.2 m; draft 11.5 m.

Type: Ship (hazmat cat A). MMSI: 636017045.

Date/timePositionNaut miles runAvg speedWind from/ knotsBaromVisibWave heightAir tempDewpointWater temp
2017-May-25 18:01N 16°14' W 061°33'0 0.1
2017-May-25 17:24N 16°14' W 061°33'0 0.0
2017-May-25 17:00N 16°14' W 061°33'0 0.0
2017-May-25 16:30N 16°14' W 061°33'0 0.0
2017-May-25 16:00N 16°14' W 061°33'0 0.0
2017-May-25 15:30N 16°14' W 061°33'0 0.0
2017-May-25 14:57N 16°14' W 061°33'0 0.0
2017-May-25 13:42N 16°14' W 061°33'0 0.0
2017-May-25 13:30N 16°14' W 061°33'0 0.0
2017-May-25 13:00N 16°14' W 061°33'0 0.0
2017-May-25 12:30N 16°14' W 061°33'0 0.0
2017-May-25 12:00N 16°14' W 061°33'0 0.0
2017-May-25 11:30N 16°14' W 061°33'0 0.0
2017-May-24 23:47N 16°14' W 061°33'0 0.0
2017-May-24 23:20N 16°14' W 061°33'0 0.0
2017-May-24 22:56N 16°14' W 061°33'0 0.0
2017-May-24 22:29N 16°14' W 061°33'0 0.0
2017-May-24 21:59N 16°14' W 061°33'0 0.0
2017-May-24 21:29N 16°14' W 061°33'0 0.0
2017-May-24 20:59N 16°14' W 061°33'0 0.0
2017-May-24 20:29N 16°14' W 061°33'0 0.0
2017-May-24 19:59N 16°14' W 061°33'0 0.0
2017-May-24 19:23N 16°14' W 061°33'0 0.0
2017-May-24 18:59N 16°14' W 061°33'0 0.0
2017-May-24 18:29N 16°14' W 061°33'1 2.6
2017-May-24 18:00N 16°13' W 061°32'4 8.2
2017-May-24 17:30N 16°09' W 061°30'2 4.8
2017-May-24 17:01N 16°07' W 061°29'611.6
2017-May-24 16:30N 16°07' W 061°23'2417.1
2017-May-24 15:05N 16°11' W 060°58'119.0
2017-May-24 15:00N 16°12' W 060°57'  
2017-May-17 20:49N 35°57' W 005°34'3 0.4
2017-May-17 12:38N 35°54' W 005°34'3 0.9
2017-May-17 09:28N 35°57' W 005°32'510.7
2017-May-17 08:59N 35°59' W 005°27'510.3
2017-May-17 08:30N 36°01' W 005°21'510.7
2017-May-17 08:00N 36°03' W 005°15'12 2.8
2017-May-17 03:32N 36°07' W 005°01'0 1.9
2017-May-17 03:29N 36°07' W 005°01'188 6.4
2017-May-15 22:01N 37°04' W 001°18'010.2
2017-May-15 22:00N 37°04' W 001°17'5 9.5
2017-May-15 21:30N 37°07' W 001°13'1111.2
2017-May-15 20:30N 37°14' W 001°02'612.7
2017-May-15 20:00N 37°18' W 000°56'612.5
2017-May-15 19:30N 37°22' W 000°50'612.3
2017-May-15 19:00N 37°26' W 000°45'912.6
2017-May-15 18:18N 37°32' W 000°36'  

Dump ship's entire track history